sensor_id;sensor_type;location;lat;lon;timestamp;P1;durP1;ratioP1;P2;durP2;ratioP2
79149;SDS011;68563;45.644;13.782;2023-11-19T00:00:06;2.88;;;1.60;;
79149;SDS011;68563;45.644;13.782;2023-11-19T00:02:37;4.50;;;2.00;;
79149;SDS011;68563;45.644;13.782;2023-11-19T00:05:03;2.97;;;1.88;;
79149;SDS011;68563;45.644;13.782;2023-11-19T00:07:29;4.47;;;1.63;;
79149;SDS011;68563;45.644;13.782;2023-11-19T00:09:54;3.28;;;1.50;;
79149;SDS011;68563;45.644;13.782;2023-11-19T00:12:20;4.20;;;1.70;;
79149;SDS011;68563;45.644;13.782;2023-11-19T00:14:45;3.80;;;1.65;;
79149;SDS011;68563;45.644;13.782;2023-11-19T00:17:11;2.88;;;1.60;;
79149;SDS011;68563;45.644;13.782;2023-11-19T00:19:36;3.92;;;1.40;;
79149;SDS011;68563;45.644;13.782;2023-11-19T00:22:01;3.47;;;1.58;;
79149;SDS011;68563;45.644;13.782;2023-11-19T00:24:28;3.63;;;1.63;;
79149;SDS011;68563;45.644;13.782;2023-11-19T00:26:54;3.67;;;1.60;;
79149;SDS011;68563;45.644;13.782;2023-11-19T00:29:20;3.08;;;1.38;;
79149;SDS011;68563;45.644;13.782;2023-11-19T00:31:46;3.72;;;1.63;;
79149;SDS011;68563;45.644;13.782;2023-11-19T00:34:11;2.67;;;1.30;;
79149;SDS011;68563;45.644;13.782;2023-11-19T00:36:37;3.88;;;1.60;;
79149;SDS011;68563;45.644;13.782;2023-11-19T00:39:02;1.95;;;1.42;;
79149;SDS011;68563;45.644;13.782;2023-11-19T00:41:27;3.90;;;1.30;;
79149;SDS011;68563;45.644;13.782;2023-11-19T00:43:53;2.83;;;1.60;;
79149;SDS011;68563;45.644;13.782;2023-11-19T00:46:18;3.20;;;1.67;;
79149;SDS011;68563;45.644;13.782;2023-11-19T00:48:43;3.28;;;1.35;;
79149;SDS011;68563;45.644;13.782;2023-11-19T00:51:11;9.05;;;1.70;;
79149;SDS011;68563;45.644;13.782;2023-11-19T00:53:37;4.40;;;1.50;;
79149;SDS011;68563;45.644;13.782;2023-11-19T00:56:02;3.45;;;1.52;;
79149;SDS011;68563;45.644;13.782;2023-11-19T00:58:27;2.20;;;1.45;;
79149;SDS011;68563;45.644;13.782;2023-11-19T01:00:53;2.55;;;1.60;;
79149;SDS011;68563;45.644;13.782;2023-11-19T01:03:18;2.70;;;1.80;;
79149;SDS011;68563;45.644;13.782;2023-11-19T01:05:44;2.38;;;1.35;;
79149;SDS011;68563;45.644;13.782;2023-11-19T01:08:11;2.85;;;1.60;;
79149;SDS011;68563;45.644;13.782;2023-11-19T01:10:37;2.85;;;1.45;;
79149;SDS011;68563;45.644;13.782;2023-11-19T01:13:02;2.47;;;1.60;;
79149;SDS011;68563;45.644;13.782;2023-11-19T01:15:30;3.03;;;1.63;;
79149;SDS011;68563;45.644;13.782;2023-11-19T01:17:56;3.72;;;1.38;;
79149;SDS011;68563;45.644;13.782;2023-11-19T01:20:22;3.13;;;1.58;;
79149;SDS011;68563;45.644;13.782;2023-11-19T01:22:47;4.28;;;1.90;;
79149;SDS011;68563;45.644;13.782;2023-11-19T01:25:13;2.35;;;1.40;;
79149;SDS011;68563;45.644;13.782;2023-11-19T01:27:39;2.72;;;1.60;;
79149;SDS011;68563;45.644;13.782;2023-11-19T01:30:04;2.75;;;1.48;;
79149;SDS011;68563;45.644;13.782;2023-11-19T01:32:31;4.18;;;1.80;;
79149;SDS011;68563;45.644;13.782;2023-11-19T01:34:56;3.97;;;1.55;;
79149;SDS011;68563;45.644;13.782;2023-11-19T01:37:22;2.58;;;1.45;;
79149;SDS011;68563;45.644;13.782;2023-11-19T01:39:47;2.83;;;1.40;;
79149;SDS011;68563;45.644;13.782;2023-11-19T01:42:13;3.45;;;1.60;;
79149;SDS011;68563;45.644;13.782;2023-11-19T01:44:38;2.80;;;1.60;;
79149;SDS011;68563;45.644;13.782;2023-11-19T01:47:04;3.40;;;1.45;;
79149;SDS011;68563;45.644;13.782;2023-11-19T01:49:31;3.33;;;1.40;;
79149;SDS011;68563;45.644;13.782;2023-11-19T01:51:57;2.85;;;1.60;;
79149;SDS011;68563;45.644;13.782;2023-11-19T01:54:24;3.15;;;1.42;;
79149;SDS011;68563;45.644;13.782;2023-11-19T01:56:50;3.90;;;1.42;;
79149;SDS011;68563;45.644;13.782;2023-11-19T01:59:17;4.13;;;1.77;;
79149;SDS011;68563;45.644;13.782;2023-11-19T02:01:43;2.53;;;1.35;;
79149;SDS011;68563;45.644;13.782;2023-11-19T02:04:08;3.33;;;1.70;;
79149;SDS011;68563;45.644;13.782;2023-11-19T02:06:34;3.47;;;1.60;;
79149;SDS011;68563;45.644;13.782;2023-11-19T02:09:05;3.53;;;1.35;;
79149;SDS011;68563;45.644;13.782;2023-11-19T02:11:33;3.05;;;1.52;;
79149;SDS011;68563;45.644;13.782;2023-11-19T02:14:01;3.28;;;1.63;;
79149;SDS011;68563;45.644;13.782;2023-11-19T02:16:29;2.70;;;1.42;;
79149;SDS011;68563;45.644;13.782;2023-11-19T02:18:54;3.10;;;1.55;;
79149;SDS011;68563;45.644;13.782;2023-11-19T02:21:20;2.72;;;1.52;;
79149;SDS011;68563;45.644;13.782;2023-11-19T02:23:45;1.92;;;1.30;;
79149;SDS011;68563;45.644;13.782;2023-11-19T02:28:48;3.85;;;1.48;;
79149;SDS011;68563;45.644;13.782;2023-11-19T02:31:14;2.97;;;1.60;;
79149;SDS011;68563;45.644;13.782;2023-11-19T02:33:40;4.85;;;1.50;;
79149;SDS011;68563;45.644;13.782;2023-11-19T02:36:06;2.13;;;1.40;;
79149;SDS011;68563;45.644;13.782;2023-11-19T02:38:33;3.13;;;1.65;;
79149;SDS011;68563;45.644;13.782;2023-11-19T02:40:59;3.25;;;2.00;;
79149;SDS011;68563;45.644;13.782;2023-11-19T02:43:28;4.45;;;1.70;;
79149;SDS011;68563;45.644;13.782;2023-11-19T02:45:53;2.08;;;1.50;;
79149;SDS011;68563;45.644;13.782;2023-11-19T02:48:20;2.35;;;1.67;;
79149;SDS011;68563;45.644;13.782;2023-11-19T02:50:46;2.92;;;1.63;;
79149;SDS011;68563;45.644;13.782;2023-11-19T02:53:13;2.45;;;1.58;;
79149;SDS011;68563;45.644;13.782;2023-11-19T02:55:38;2.65;;;1.40;;
79149;SDS011;68563;45.644;13.782;2023-11-19T02:58:05;3.33;;;1.80;;
79149;SDS011;68563;45.644;13.782;2023-11-19T03:00:44;4.20;;;1.75;;
79149;SDS011;68563;45.644;13.782;2023-11-19T03:03:17;3.92;;;1.60;;
79149;SDS011;68563;45.644;13.782;2023-11-19T03:05:45;2.90;;;1.67;;
79149;SDS011;68563;45.644;13.782;2023-11-19T03:08:14;5.38;;;1.70;;
79149;SDS011;68563;45.644;13.782;2023-11-19T03:10:40;2.90;;;1.70;;
79149;SDS011;68563;45.644;13.782;2023-11-19T03:13:06;4.38;;;1.98;;
79149;SDS011;68563;45.644;13.782;2023-11-19T03:15:37;2.92;;;1.80;;
79149;SDS011;68563;45.644;13.782;2023-11-19T03:18:03;2.78;;;1.95;;
79149;SDS011;68563;45.644;13.782;2023-11-19T03:20:28;3.70;;;1.80;;
79149;SDS011;68563;45.644;13.782;2023-11-19T03:22:55;5.82;;;1.85;;
79149;SDS011;68563;45.644;13.782;2023-11-19T03:25:22;3.95;;;1.88;;
79149;SDS011;68563;45.644;13.782;2023-11-19T03:27:50;4.55;;;2.00;;
79149;SDS011;68563;45.644;13.782;2023-11-19T03:30:16;4.43;;;1.80;;
79149;SDS011;68563;45.644;13.782;2023-11-19T03:32:42;2.75;;;1.80;;
79149;SDS011;68563;45.644;13.782;2023-11-19T03:35:08;3.42;;;1.58;;
79149;SDS011;68563;45.644;13.782;2023-11-19T03:37:34;3.00;;;1.90;;
79149;SDS011;68563;45.644;13.782;2023-11-19T03:39:59;5.90;;;1.70;;
79149;SDS011;68563;45.644;13.782;2023-11-19T03:42:25;2.42;;;1.48;;
79149;SDS011;68563;45.644;13.782;2023-11-19T03:44:52;4.32;;;2.08;;
79149;SDS011;68563;45.644;13.782;2023-11-19T03:47:18;5.95;;;2.10;;
79149;SDS011;68563;45.644;13.782;2023-11-19T03:49:47;4.60;;;2.05;;
79149;SDS011;68563;45.644;13.782;2023-11-19T03:52:13;2.67;;;1.85;;
79149;SDS011;68563;45.644;13.782;2023-11-19T03:54:39;3.25;;;1.80;;
79149;SDS011;68563;45.644;13.782;2023-11-19T03:57:04;3.30;;;1.90;;
79149;SDS011;68563;45.644;13.782;2023-11-19T03:59:30;2.95;;;1.80;;
79149;SDS011;68563;45.644;13.782;2023-11-19T04:01:55;3.65;;;1.65;;
79149;SDS011;68563;45.644;13.782;2023-11-19T04:04:21;2.63;;;1.80;;
79149;SDS011;68563;45.644;13.782;2023-11-19T04:06:47;4.45;;;1.90;;
79149;SDS011;68563;45.644;13.782;2023-11-19T04:09:12;2.83;;;1.92;;
79149;SDS011;68563;45.644;13.782;2023-11-19T04:11:37;3.25;;;1.92;;
79149;SDS011;68563;45.644;13.782;2023-11-19T04:14:04;5.47;;;2.00;;
79149;SDS011;68563;45.644;13.782;2023-11-19T04:16:29;3.60;;;2.20;;
79149;SDS011;68563;45.644;13.782;2023-11-19T04:18:55;5.50;;;1.92;;
79149;SDS011;68563;45.644;13.782;2023-11-19T04:21:20;3.63;;;2.03;;
79149;SDS011;68563;45.644;13.782;2023-11-19T04:23:45;3.35;;;2.20;;
79149;SDS011;68563;45.644;13.782;2023-11-19T04:26:11;4.90;;;2.40;;
79149;SDS011;68563;45.644;13.782;2023-11-19T04:28:36;3.28;;;2.10;;
79149;SDS011;68563;45.644;13.782;2023-11-19T04:31:01;3.28;;;2.00;;
79149;SDS011;68563;45.644;13.782;2023-11-19T04:33:28;3.90;;;1.95;;
79149;SDS011;68563;45.644;13.782;2023-11-19T04:35:53;5.15;;;2.03;;
79149;SDS011;68563;45.644;13.782;2023-11-19T04:38:19;2.95;;;1.92;;
79149;SDS011;68563;45.644;13.782;2023-11-19T04:40:44;2.70;;;1.63;;
79149;SDS011;68563;45.644;13.782;2023-11-19T04:43:09;3.05;;;1.90;;
79149;SDS011;68563;45.644;13.782;2023-11-19T04:45:35;3.60;;;1.70;;
79149;SDS011;68563;45.644;13.782;2023-11-19T04:48:00;3.33;;;1.73;;
79149;SDS011;68563;45.644;13.782;2023-11-19T04:50:26;3.25;;;1.70;;
79149;SDS011;68563;45.644;13.782;2023-11-19T04:52:52;2.22;;;1.65;;
79149;SDS011;68563;45.644;13.782;2023-11-19T04:55:19;2.75;;;1.73;;
79149;SDS011;68563;45.644;13.782;2023-11-19T04:57:45;3.00;;;1.80;;
79149;SDS011;68563;45.644;13.782;2023-11-19T05:00:10;2.42;;;1.70;;
79149;SDS011;68563;45.644;13.782;2023-11-19T05:02:36;2.92;;;1.83;;
79149;SDS011;68563;45.644;13.782;2023-11-19T05:05:02;3.70;;;1.75;;
79149;SDS011;68563;45.644;13.782;2023-11-19T05:07:29;3.38;;;1.92;;
79149;SDS011;68563;45.644;13.782;2023-11-19T05:09:54;3.05;;;1.85;;
79149;SDS011;68563;45.644;13.782;2023-11-19T05:12:20;2.75;;;1.80;;
79149;SDS011;68563;45.644;13.782;2023-11-19T05:14:46;4.20;;;2.05;;
79149;SDS011;68563;45.644;13.782;2023-11-19T05:17:15;4.22;;;1.90;;
79149;SDS011;68563;45.644;13.782;2023-11-19T05:19:40;3.22;;;1.92;;
79149;SDS011;68563;45.644;13.782;2023-11-19T05:22:06;3.40;;;2.15;;
79149;SDS011;68563;45.644;13.782;2023-11-19T05:24:32;5.40;;;2.08;;
79149;SDS011;68563;45.644;13.782;2023-11-19T05:26:58;6.28;;;2.30;;
79149;SDS011;68563;45.644;13.782;2023-11-19T05:29:23;4.35;;;2.05;;
79149;SDS011;68563;45.644;13.782;2023-11-19T05:31:48;4.32;;;2.55;;
79149;SDS011;68563;45.644;13.782;2023-11-19T05:34:14;3.58;;;2.40;;
79149;SDS011;68563;45.644;13.782;2023-11-19T05:36:40;3.92;;;2.08;;
79149;SDS011;68563;45.644;13.782;2023-11-19T05:39:05;5.97;;;2.55;;
79149;SDS011;68563;45.644;13.782;2023-11-19T05:41:30;4.50;;;2.22;;
79149;SDS011;68563;45.644;13.782;2023-11-19T05:43:56;4.57;;;2.85;;
79149;SDS011;68563;45.644;13.782;2023-11-19T05:46:21;4.07;;;2.20;;
79149;SDS011;68563;45.644;13.782;2023-11-19T05:48:47;3.58;;;2.40;;
79149;SDS011;68563;45.644;13.782;2023-11-19T05:51:12;4.10;;;2.28;;
79149;SDS011;68563;45.644;13.782;2023-11-19T05:53:40;3.97;;;2.30;;
79149;SDS011;68563;45.644;13.782;2023-11-19T05:56:05;4.32;;;2.78;;
79149;SDS011;68563;45.644;13.782;2023-11-19T05:58:34;3.85;;;2.53;;
79149;SDS011;68563;45.644;13.782;2023-11-19T06:01:01;4.75;;;2.65;;
79149;SDS011;68563;45.644;13.782;2023-11-19T06:03:27;4.32;;;2.40;;
79149;SDS011;68563;45.644;13.782;2023-11-19T06:05:53;4.68;;;2.70;;
79149;SDS011;68563;45.644;13.782;2023-11-19T06:08:19;5.50;;;2.42;;
79149;SDS011;68563;45.644;13.782;2023-11-19T06:10:46;6.22;;;2.47;;
79149;SDS011;68563;45.644;13.782;2023-11-19T06:13:11;4.07;;;2.50;;
79149;SDS011;68563;45.644;13.782;2023-11-19T06:15:40;5.93;;;2.75;;
79149;SDS011;68563;45.644;13.782;2023-11-19T06:18:06;4.50;;;2.75;;
79149;SDS011;68563;45.644;13.782;2023-11-19T06:20:32;5.32;;;3.03;;
79149;SDS011;68563;45.644;13.782;2023-11-19T06:22:58;5.60;;;2.80;;
79149;SDS011;68563;45.644;13.782;2023-11-19T06:25:24;3.95;;;2.92;;
79149;SDS011;68563;45.644;13.782;2023-11-19T06:27:52;5.15;;;3.05;;
79149;SDS011;68563;45.644;13.782;2023-11-19T06:30:18;5.22;;;3.13;;
79149;SDS011;68563;45.644;13.782;2023-11-19T06:32:44;6.30;;;3.08;;
79149;SDS011;68563;45.644;13.782;2023-11-19T06:35:10;6.18;;;3.00;;
79149;SDS011;68563;45.644;13.782;2023-11-19T06:37:36;4.78;;;2.88;;
79149;SDS011;68563;45.644;13.782;2023-11-19T06:40:04;7.10;;;3.35;;
79149;SDS011;68563;45.644;13.782;2023-11-19T06:42:30;4.88;;;2.80;;
79149;SDS011;68563;45.644;13.782;2023-11-19T06:44:55;4.10;;;2.60;;
79149;SDS011;68563;45.644;13.782;2023-11-19T06:47:22;4.50;;;2.95;;
79149;SDS011;68563;45.644;13.782;2023-11-19T06:49:50;5.35;;;3.10;;
79149;SDS011;68563;45.644;13.782;2023-11-19T06:52:16;7.45;;;2.97;;
79149;SDS011;68563;45.644;13.782;2023-11-19T06:54:41;8.82;;;2.97;;
79149;SDS011;68563;45.644;13.782;2023-11-19T06:57:06;5.60;;;2.78;;
79149;SDS011;68563;45.644;13.782;2023-11-19T06:59:34;4.15;;;2.47;;
79149;SDS011;68563;45.644;13.782;2023-11-19T07:01:59;4.03;;;2.90;;
79149;SDS011;68563;45.644;13.782;2023-11-19T07:04:25;8.05;;;3.40;;
79149;SDS011;68563;45.644;13.782;2023-11-19T07:06:50;6.53;;;3.10;;
79149;SDS011;68563;45.644;13.782;2023-11-19T07:09:17;6.30;;;3.10;;
79149;SDS011;68563;45.644;13.782;2023-11-19T07:11:43;4.93;;;2.78;;
79149;SDS011;68563;45.644;13.782;2023-11-19T07:14:10;6.18;;;2.40;;
79149;SDS011;68563;45.644;13.782;2023-11-19T07:16:36;6.97;;;3.00;;
79149;SDS011;68563;45.644;13.782;2023-11-19T07:19:03;4.72;;;2.35;;
79149;SDS011;68563;45.644;13.782;2023-11-19T07:21:30;4.07;;;2.60;;
79149;SDS011;68563;45.644;13.782;2023-11-19T07:23:55;5.05;;;2.50;;
79149;SDS011;68563;45.644;13.782;2023-11-19T07:26:21;6.00;;;2.30;;
79149;SDS011;68563;45.644;13.782;2023-11-19T07:28:47;4.65;;;2.50;;
79149;SDS011;68563;45.644;13.782;2023-11-19T07:31:13;11.52;;;5.78;;
79149;SDS011;68563;45.644;13.782;2023-11-19T07:33:39;3.58;;;2.35;;
79149;SDS011;68563;45.644;13.782;2023-11-19T07:36:07;4.00;;;2.70;;
79149;SDS011;68563;45.644;13.782;2023-11-19T07:38:33;4.30;;;2.50;;
79149;SDS011;68563;45.644;13.782;2023-11-19T07:40:58;3.40;;;2.33;;
79149;SDS011;68563;45.644;13.782;2023-11-19T07:43:24;4.25;;;2.38;;
79149;SDS011;68563;45.644;13.782;2023-11-19T07:45:49;3.55;;;2.33;;
79149;SDS011;68563;45.644;13.782;2023-11-19T07:48:14;3.80;;;2.40;;
79149;SDS011;68563;45.644;13.782;2023-11-19T07:50:40;5.35;;;2.70;;
79149;SDS011;68563;45.644;13.782;2023-11-19T07:53:06;4.80;;;2.50;;
79149;SDS011;68563;45.644;13.782;2023-11-19T07:55:32;4.70;;;2.40;;
79149;SDS011;68563;45.644;13.782;2023-11-19T07:57:58;3.67;;;2.30;;
79149;SDS011;68563;45.644;13.782;2023-11-19T08:00:23;3.05;;;2.30;;
79149;SDS011;68563;45.644;13.782;2023-11-19T08:02:49;3.97;;;2.40;;
79149;SDS011;68563;45.644;13.782;2023-11-19T08:05:14;5.72;;;2.40;;
79149;SDS011;68563;45.644;13.782;2023-11-19T08:07:40;4.63;;;2.72;;
79149;SDS011;68563;45.644;13.782;2023-11-19T08:10:05;3.80;;;2.30;;
79149;SDS011;68563;45.644;13.782;2023-11-19T08:12:34;4.80;;;2.40;;
79149;SDS011;68563;45.644;13.782;2023-11-19T08:15:01;7.40;;;2.90;;
79149;SDS011;68563;45.644;13.782;2023-11-19T08:17:27;4.32;;;2.53;;
79149;SDS011;68563;45.644;13.782;2023-11-19T08:19:53;5.68;;;2.30;;
79149;SDS011;68563;45.644;13.782;2023-11-19T08:22:18;3.42;;;2.20;;
79149;SDS011;68563;45.644;13.782;2023-11-19T08:24:43;3.08;;;2.10;;
79149;SDS011;68563;45.644;13.782;2023-11-19T08:27:09;6.47;;;2.58;;
79149;SDS011;68563;45.644;13.782;2023-11-19T08:29:34;3.67;;;2.33;;
79149;SDS011;68563;45.644;13.782;2023-11-19T08:32:00;4.60;;;2.40;;
79149;SDS011;68563;45.644;13.782;2023-11-19T08:34:28;4.90;;;2.33;;
79149;SDS011;68563;45.644;13.782;2023-11-19T08:36:54;4.38;;;2.13;;
79149;SDS011;68563;45.644;13.782;2023-11-19T08:39:19;4.32;;;2.42;;
79149;SDS011;68563;45.644;13.782;2023-11-19T08:41:46;3.53;;;2.40;;
79149;SDS011;68563;45.644;13.782;2023-11-19T08:44:15;3.85;;;2.22;;
79149;SDS011;68563;45.644;13.782;2023-11-19T08:46:47;5.55;;;2.35;;
79149;SDS011;68563;45.644;13.782;2023-11-19T08:49:16;5.85;;;2.72;;
79149;SDS011;68563;45.644;13.782;2023-11-19T08:51:41;4.68;;;2.70;;
79149;SDS011;68563;45.644;13.782;2023-11-19T08:54:06;5.07;;;2.25;;
79149;SDS011;68563;45.644;13.782;2023-11-19T08:56:32;4.00;;;2.17;;
79149;SDS011;68563;45.644;13.782;2023-11-19T08:58:59;2.85;;;2.05;;
79149;SDS011;68563;45.644;13.782;2023-11-19T09:01:25;3.25;;;2.08;;
79149;SDS011;68563;45.644;13.782;2023-11-19T09:03:50;3.03;;;2.45;;
79149;SDS011;68563;45.644;13.782;2023-11-19T09:06:15;4.07;;;2.40;;
79149;SDS011;68563;45.644;13.782;2023-11-19T09:08:42;3.60;;;2.33;;
79149;SDS011;68563;45.644;13.782;2023-11-19T09:11:07;4.03;;;2.47;;
79149;SDS011;68563;45.644;13.782;2023-11-19T09:13:36;4.43;;;2.67;;
79149;SDS011;68563;45.644;13.782;2023-11-19T09:16:02;4.88;;;2.70;;
79149;SDS011;68563;45.644;13.782;2023-11-19T09:18:31;9.10;;;2.70;;
79149;SDS011;68563;45.644;13.782;2023-11-19T09:20:57;5.45;;;2.95;;
79149;SDS011;68563;45.644;13.782;2023-11-19T09:23:23;3.80;;;2.63;;
79149;SDS011;68563;45.644;13.782;2023-11-19T09:25:54;5.70;;;2.90;;
79149;SDS011;68563;45.644;13.782;2023-11-19T09:28:20;3.97;;;2.67;;
79149;SDS011;68563;45.644;13.782;2023-11-19T09:30:45;5.70;;;2.92;;
79149;SDS011;68563;45.644;13.782;2023-11-19T09:33:11;4.25;;;2.75;;
79149;SDS011;68563;45.644;13.782;2023-11-19T09:35:36;4.72;;;2.90;;
79149;SDS011;68563;45.644;13.782;2023-11-19T09:38:02;7.95;;;3.22;;
79149;SDS011;68563;45.644;13.782;2023-11-19T09:40:27;4.78;;;3.28;;
79149;SDS011;68563;45.644;13.782;2023-11-19T09:42:53;5.47;;;3.20;;
79149;SDS011;68563;45.644;13.782;2023-11-19T09:45:21;6.75;;;3.20;;
79149;SDS011;68563;45.644;13.782;2023-11-19T09:47:46;5.00;;;3.00;;
79149;SDS011;68563;45.644;13.782;2023-11-19T09:50:14;4.13;;;2.85;;
79149;SDS011;68563;45.644;13.782;2023-11-19T09:52:44;5.28;;;3.22;;
79149;SDS011;68563;45.644;13.782;2023-11-19T09:55:11;6.35;;;3.40;;
79149;SDS011;68563;45.644;13.782;2023-11-19T09:57:38;6.03;;;3.38;;
79149;SDS011;68563;45.644;13.782;2023-11-19T10:00:04;5.45;;;3.33;;
79149;SDS011;68563;45.644;13.782;2023-11-19T10:02:34;6.13;;;3.50;;
79149;SDS011;68563;45.644;13.782;2023-11-19T10:05:11;6.78;;;3.70;;
79149;SDS011;68563;45.644;13.782;2023-11-19T10:07:37;5.28;;;3.35;;
79149;SDS011;68563;45.644;13.782;2023-11-19T10:10:03;6.60;;;3.60;;
79149;SDS011;68563;45.644;13.782;2023-11-19T10:12:29;4.60;;;3.22;;
79149;SDS011;68563;45.644;13.782;2023-11-19T10:14:58;5.00;;;3.53;;
79149;SDS011;68563;45.644;13.782;2023-11-19T10:17:33;5.43;;;3.47;;
79149;SDS011;68563;45.644;13.782;2023-11-19T10:19:59;6.47;;;3.05;;
79149;SDS011;68563;45.644;13.782;2023-11-19T10:22:27;6.75;;;2.95;;
79149;SDS011;68563;45.644;13.782;2023-11-19T10:24:52;5.07;;;3.10;;
79149;SDS011;68563;45.644;13.782;2023-11-19T10:27:18;8.98;;;5.78;;
79149;SDS011;68563;45.644;13.782;2023-11-19T10:29:46;8.23;;;4.05;;
79149;SDS011;68563;45.644;13.782;2023-11-19T10:32:12;5.55;;;3.78;;
79149;SDS011;68563;45.644;13.782;2023-11-19T10:34:39;7.00;;;3.92;;
79149;SDS011;68563;45.644;13.782;2023-11-19T10:37:06;7.13;;;4.07;;
79149;SDS011;68563;45.644;13.782;2023-11-19T10:42:19;10.20;;;3.60;;
79149;SDS011;68563;45.644;13.782;2023-11-19T10:44:45;8.60;;;3.78;;
79149;SDS011;68563;45.644;13.782;2023-11-19T10:47:10;4.38;;;3.13;;
79149;SDS011;68563;45.644;13.782;2023-11-19T10:49:38;5.32;;;3.33;;
79149;SDS011;68563;45.644;13.782;2023-11-19T10:52:05;5.00;;;3.38;;
79149;SDS011;68563;45.644;13.782;2023-11-19T10:54:30;5.00;;;3.33;;
79149;SDS011;68563;45.644;13.782;2023-11-19T10:56:59;4.78;;;3.28;;
79149;SDS011;68563;45.644;13.782;2023-11-19T10:59:27;7.28;;;3.55;;
79149;SDS011;68563;45.644;13.782;2023-11-19T11:01:55;6.97;;;3.33;;
79149;SDS011;68563;45.644;13.782;2023-11-19T11:04:25;5.80;;;3.92;;
79149;SDS011;68563;45.644;13.782;2023-11-19T11:09:19;5.20;;;3.53;;
79149;SDS011;68563;45.644;13.782;2023-11-19T11:11:46;7.35;;;4.30;;
79149;SDS011;68563;45.644;13.782;2023-11-19T11:14:12;6.72;;;4.00;;
79149;SDS011;68563;45.644;13.782;2023-11-19T11:16:42;6.05;;;4.03;;
79149;SDS011;68563;45.644;13.782;2023-11-19T11:19:09;5.35;;;3.83;;
79149;SDS011;68563;45.644;13.782;2023-11-19T11:21:35;7.05;;;3.78;;
79149;SDS011;68563;45.644;13.782;2023-11-19T11:33:15;5.05;;;3.50;;
79149;SDS011;68563;45.644;13.782;2023-11-19T11:38:46;6.38;;;4.57;;
79149;SDS011;68563;45.644;13.782;2023-11-19T11:41:18;7.60;;;4.53;;
79149;SDS011;68563;45.644;13.782;2023-11-19T11:43:45;6.57;;;3.58;;
79149;SDS011;68563;45.644;13.782;2023-11-19T11:47:12;6.22;;;4.32;;
79149;SDS011;68563;45.644;13.782;2023-11-19T11:54:10;7.82;;;5.07;;
79149;SDS011;68563;45.644;13.782;2023-11-19T11:56:38;7.38;;;4.50;;
79149;SDS011;68563;45.644;13.782;2023-11-19T11:59:07;6.75;;;4.78;;
79149;SDS011;68563;45.644;13.782;2023-11-19T12:01:34;8.00;;;4.30;;
79149;SDS011;68563;45.644;13.782;2023-11-19T12:04:00;7.25;;;4.97;;
79149;SDS011;68563;45.644;13.782;2023-11-19T12:06:26;6.57;;;4.57;;
79149;SDS011;68563;45.644;13.782;2023-11-19T12:08:52;6.70;;;4.25;;
79149;SDS011;68563;45.644;13.782;2023-11-19T12:11:19;7.35;;;4.60;;
79149;SDS011;68563;45.644;13.782;2023-11-19T12:13:54;6.88;;;4.47;;
79149;SDS011;68563;45.644;13.782;2023-11-19T12:16:23;7.28;;;4.78;;
79149;SDS011;68563;45.644;13.782;2023-11-19T12:18:48;8.18;;;4.75;;
79149;SDS011;68563;45.644;13.782;2023-11-19T12:21:27;7.72;;;4.72;;
79149;SDS011;68563;45.644;13.782;2023-11-19T12:23:54;9.85;;;5.20;;
79149;SDS011;68563;45.644;13.782;2023-11-19T12:26:35;6.30;;;4.75;;
79149;SDS011;68563;45.644;13.782;2023-11-19T12:29:03;9.90;;;4.78;;
79149;SDS011;68563;45.644;13.782;2023-11-19T12:31:31;6.45;;;4.38;;
79149;SDS011;68563;45.644;13.782;2023-11-19T12:33:56;8.23;;;4.82;;
79149;SDS011;68563;45.644;13.782;2023-11-19T12:36:22;7.05;;;4.78;;
79149;SDS011;68563;45.644;13.782;2023-11-19T12:38:47;7.43;;;4.65;;
79149;SDS011;68563;45.644;13.782;2023-11-19T12:41:13;7.55;;;4.70;;
79149;SDS011;68563;45.644;13.782;2023-11-19T12:43:42;7.25;;;4.63;;
79149;SDS011;68563;45.644;13.782;2023-11-19T12:46:20;6.43;;;4.60;;
79149;SDS011;68563;45.644;13.782;2023-11-19T12:48:47;17.20;;;8.82;;
79149;SDS011;68563;45.644;13.782;2023-11-19T12:51:16;13.38;;;6.55;;
79149;SDS011;68563;45.644;13.782;2023-11-19T12:53:51;7.28;;;4.80;;
79149;SDS011;68563;45.644;13.782;2023-11-19T12:56:22;7.30;;;4.80;;
79149;SDS011;68563;45.644;13.782;2023-11-19T12:58:48;7.55;;;4.15;;
79149;SDS011;68563;45.644;13.782;2023-11-19T13:01:17;6.53;;;4.20;;
79149;SDS011;68563;45.644;13.782;2023-11-19T13:03:44;6.82;;;4.82;;
79149;SDS011;68563;45.644;13.782;2023-11-19T13:06:11;6.18;;;4.28;;
79149;SDS011;68563;45.644;13.782;2023-11-19T13:11:29;8.85;;;4.97;;
79149;SDS011;68563;45.644;13.782;2023-11-19T13:14:05;7.18;;;4.72;;
79149;SDS011;68563;45.644;13.782;2023-11-19T13:16:37;6.78;;;4.57;;
79149;SDS011;68563;45.644;13.782;2023-11-19T13:19:03;7.50;;;4.95;;
79149;SDS011;68563;45.644;13.782;2023-11-19T13:21:29;8.85;;;5.25;;
79149;SDS011;68563;45.644;13.782;2023-11-19T13:23:56;9.45;;;5.40;;
79149;SDS011;68563;45.644;13.782;2023-11-19T13:26:30;10.65;;;7.35;;
79149;SDS011;68563;45.644;13.782;2023-11-19T13:28:58;10.00;;;6.35;;
79149;SDS011;68563;45.644;13.782;2023-11-19T13:31:27;8.95;;;6.28;;
79149;SDS011;68563;45.644;13.782;2023-11-19T13:33:52;8.68;;;5.57;;
79149;SDS011;68563;45.644;13.782;2023-11-19T13:36:17;9.15;;;6.07;;
79149;SDS011;68563;45.644;13.782;2023-11-19T13:38:43;9.20;;;6.60;;
79149;SDS011;68563;45.644;13.782;2023-11-19T13:41:12;13.15;;;7.95;;
79149;SDS011;68563;45.644;13.782;2023-11-19T13:43:38;9.57;;;7.00;;
79149;SDS011;68563;45.644;13.782;2023-11-19T13:46:05;10.25;;;6.15;;
79149;SDS011;68563;45.644;13.782;2023-11-19T13:48:31;8.50;;;5.68;;
79149;SDS011;68563;45.644;13.782;2023-11-19T13:50:57;8.07;;;5.28;;
79149;SDS011;68563;45.644;13.782;2023-11-19T13:53:23;8.68;;;5.90;;
79149;SDS011;68563;45.644;13.782;2023-11-19T13:55:51;9.75;;;5.95;;
79149;SDS011;68563;45.644;13.782;2023-11-19T13:58:18;10.25;;;5.50;;
79149;SDS011;68563;45.644;13.782;2023-11-19T14:00:43;9.57;;;5.72;;
79149;SDS011;68563;45.644;13.782;2023-11-19T14:03:09;9.48;;;5.80;;
79149;SDS011;68563;45.644;13.782;2023-11-19T14:05:37;10.32;;;6.00;;
79149;SDS011;68563;45.644;13.782;2023-11-19T14:08:04;8.73;;;5.78;;
79149;SDS011;68563;45.644;13.782;2023-11-19T14:10:36;9.32;;;5.82;;
79149;SDS011;68563;45.644;13.782;2023-11-19T14:13:05;8.70;;;5.70;;
79149;SDS011;68563;45.644;13.782;2023-11-19T14:15:31;16.95;;;6.25;;
79149;SDS011;68563;45.644;13.782;2023-11-19T14:17:57;9.82;;;6.22;;
79149;SDS011;68563;45.644;13.782;2023-11-19T14:20:22;9.25;;;5.78;;
79149;SDS011;68563;45.644;13.782;2023-11-19T14:22:47;9.55;;;6.00;;
79149;SDS011;68563;45.644;13.782;2023-11-19T14:25:14;9.25;;;5.85;;
79149;SDS011;68563;45.644;13.782;2023-11-19T14:27:40;10.35;;;6.10;;
79149;SDS011;68563;45.644;13.782;2023-11-19T14:30:07;9.52;;;6.45;;
79149;SDS011;68563;45.644;13.782;2023-11-19T14:32:36;10.32;;;5.85;;
79149;SDS011;68563;45.644;13.782;2023-11-19T14:35:02;9.07;;;6.25;;
79149;SDS011;68563;45.644;13.782;2023-11-19T14:37:28;10.48;;;5.93;;
79149;SDS011;68563;45.644;13.782;2023-11-19T14:39:55;9.73;;;6.43;;
79149;SDS011;68563;45.644;13.782;2023-11-19T14:42:22;14.77;;;7.30;;
79149;SDS011;68563;45.644;13.782;2023-11-19T14:44:48;11.32;;;7.18;;
79149;SDS011;68563;45.644;13.782;2023-11-19T14:47:13;10.27;;;6.97;;
79149;SDS011;68563;45.644;13.782;2023-11-19T14:49:39;10.50;;;7.30;;
79149;SDS011;68563;45.644;13.782;2023-11-19T14:52:04;11.65;;;8.00;;
79149;SDS011;68563;45.644;13.782;2023-11-19T14:54:30;10.45;;;7.22;;
79149;SDS011;68563;45.644;13.782;2023-11-19T14:56:56;12.23;;;7.60;;